Time;durP1;ratioP1;P1;durP2;ratioP2;P2;SDS_P1;SDS_P2;PMS_P1;PMS_P2;Temp;Humidity;BMP_temperature;BMP_pressure;BME280_temperature;BME280_humidity;BME280_pressure;Samples;Min_cycle;Max_cycle;Signal;HPM_P1;HPM_P2
2022/12/21 00:02:36;;;;;;;;;;;15.80;65.90;;;;;;10204602;28;94428;-64
2022/12/21 00:07:38;;;;;;;;;;;15.80;65.90;;;;;;10206659;28;93798;-65
2022/12/21 00:12:40;;;;;;;;;;;15.80;65.90;;;;;;10204046;28;95058;-65
2022/12/21 00:17:41;;;;;;;;;;;15.70;65.90;;;;;;10206043;28;94465;-64
2022/12/21 00:22:46;;;;;;;;;;;15.70;65.80;;;;;;10206550;28;93076;-65
2022/12/21 00:27:48;;;;;;;;;;;15.70;65.80;;;;;;10207964;28;94307;-65
2022/12/21 00:32:50;;;;;;;;;;;15.70;65.70;;;;;;10212836;28;94470;-65
2022/12/21 00:37:52;;;;;;;;;;;15.70;65.80;;;;;;10210624;28;92610;-65
2022/12/21 00:42:54;;;;;;;;;;;15.70;65.70;;;;;;10211485;28;94048;-65
2022/12/21 00:47:56;;;;;;;;;;;15.70;65.70;;;;;;10212242;28;92516;-65
2022/12/21 00:52:57;;;;;;;;;;;15.70;65.70;;;;;;10212339;28;92524;-65
2022/12/21 00:58:00;;;;;;;;;;;15.60;65.70;;;;;;10211668;28;94520;-65
2022/12/21 01:03:01;;;;;;;;;;;15.60;65.70;;;;;;10209605;28;96863;-65
2022/12/21 01:08:03;;;;;;;;;;;15.60;65.70;;;;;;10211084;28;93745;-65
2022/12/21 01:13:13;;;;;;;;;;;15.60;65.60;;;;;;10211751;28;93607;-64
2022/12/21 01:18:15;;;;;;;;;;;15.60;65.70;;;;;;10211193;28;94380;-65
2022/12/21 01:23:17;;;;;;;;;;;15.50;65.60;;;;;;10212485;28;93700;-65
2022/12/21 01:28:19;;;;;;;;;;;15.60;65.70;;;;;;10211449;28;93519;-65
2022/12/21 01:33:21;;;;;;;;;;;15.50;65.50;;;;;;10210616;28;94507;-65
2022/12/21 01:38:23;;;;;;;;;;;15.50;65.50;;;;;;10211176;28;93796;-66
2022/12/21 01:43:40;;;;;;;;;;;15.50;65.50;;;;;;10208717;28;93905;-65
2022/12/21 01:48:44;;;;;;;;;;;15.50;65.50;;;;;;10209567;28;93669;-65
2022/12/21 01:53:58;;;;;;;;;;;15.50;65.40;;;;;;10206198;28;96922;-65
2022/12/21 01:59:04;;;;;;;;;;;15.40;65.30;;;;;;10209331;28;93453;-66
2022/12/21 02:04:06;;;;;;;;;;;15.50;65.30;;;;;;10600003;23;95207;-65
2022/12/21 02:09:08;;;;;;;;;;;15.40;65.30;;;;;;10208907;28;93529;-64
2022/12/21 02:14:10;;;;;;;;;;;15.50;65.30;;;;;;10208989;28;93477;-65
2022/12/21 02:19:38;;;;;;;;;;;15.40;65.20;;;;;;10208015;28;94478;-65
2022/12/21 02:24:39;;;;;;;;;;;15.40;65.20;;;;;;10206983;28;93528;-64
2022/12/21 02:30:00;;;;;;;;;;;15.40;65.10;;;;;;10209623;28;92757;-64
2022/12/21 02:35:10;;;;;;;;;;;15.40;65.00;;;;;;10208714;28;93668;-65
2022/12/21 02:40:29;;;;;;;;;;;15.40;65.10;;;;;;10206966;28;93521;-65
2022/12/21 02:45:49;;;;;;;;;;;15.40;65.00;;;;;;10205462;28;96817;-65
2022/12/21 02:50:53;;;;;;;;;;;15.40;65.00;;;;;;10221318;28;94501;-65
2022/12/21 02:55:54;;;;;;;;;;;15.40;64.90;;;;;;10207414;28;93479;-65
2022/12/21 03:01:12;;;;;;;;;;;15.40;64.90;;;;;;10207019;28;93443;-65
2022/12/21 03:06:37;;;;;;;;;;;15.40;64.80;;;;;;10206614;28;93393;-65
2022/12/21 03:11:45;;;;;;;;;;;15.40;64.70;;;;;;10207085;28;92835;-64
2022/12/21 03:16:49;;;;;;;;;;;15.40;64.80;;;;;;10207469;28;94330;-65
2022/12/21 03:22:12;;;;;;;;;;;15.40;65.70;;;;;;10207552;28;92811;-65
2022/12/21 03:27:19;;;;;;;;;;;15.40;64.70;;;;;;10205938;28;93515;-65
2022/12/21 03:32:27;;;;;;;;;;;15.40;64.70;;;;;;10206652;28;93454;-65
2022/12/21 03:37:32;;;;;;;;;;;15.40;64.70;;;;;;10204239;28;96216;-65
2022/12/21 03:42:35;;;;;;;;;;;15.30;64.70;;;;;;10207094;28;94499;-64
2022/12/21 03:47:40;;;;;;;;;;;15.30;64.60;;;;;;10205749;28;93909;-64
2022/12/21 03:52:46;;;;;;;;;;;15.30;64.50;;;;;;10206123;28;94521;-64
2022/12/21 03:57:49;;;;;;;;;;;15.30;64.50;;;;;;10205658;28;93548;-65
2022/12/21 04:02:56;;;;;;;;;;;15.30;64.50;;;;;;10224910;28;93453;-65
2022/12/21 04:07:58;;;;;;;;;;;15.30;64.50;;;;;;10214263;28;93395;-65
2022/12/21 04:13:00;;;;;;;;;;;15.30;64.40;;;;;;10229772;28;93807;-64
2022/12/21 04:18:01;;;;;;;;;;;15.30;64.40;;;;;;10213160;28;93527;-64
2022/12/21 04:28:25;;;;;;;;;;;15.30;64.50;;;;;;10210267;28;95853;-64
2022/12/21 04:33:46;;;;;;;;;;;15.30;64.60;;;;;;10224716;28;92557;-64
2022/12/21 04:38:48;;;;;;;;;;;15.30;64.60;;;;;;10226483;28;94373;-64
2022/12/21 04:43:50;;;;;;;;;;;15.30;64.50;;;;;;10212567;28;93490;-64
2022/12/21 06:06:07;;;;;;;;;;;15.90;63.70;;;;;;10197092;28;93272;-65
2022/12/21 06:11:09;;;;;;;;;;;16.10;63.00;;;;;;10210037;28;92936;-65
2022/12/21 06:16:12;;;;;;;;;;;16.20;62.60;;;;;;10224520;28;93585;-65
2022/12/21 06:21:15;;;;;;;;;;;16.20;62.50;;;;;;10208955;28;94612;-65
2022/12/21 06:26:18;;;;;;;;;;;16.20;62.40;;;;;;10205635;28;96213;-66
2022/12/21 06:31:21;;;;;;;;;;;16.20;62.50;;;;;;10208413;28;94107;-65
2022/12/21 06:36:23;;;;;;;;;;;16.20;62.50;;;;;;10207837;28;93847;-65
2022/12/21 06:41:25;;;;;;;;;;;16.10;62.60;;;;;;10208764;28;94520;-64
2022/12/21 06:46:27;;;;;;;;;;;16.10;62.70;;;;;;10206748;28;93483;-64
2022/12/21 06:51:29;;;;;;;;;;;16.00;62.70;;;;;;10209623;28;94112;-64
2022/12/21 06:56:31;;;;;;;;;;;15.90;62.80;;;;;;10222791;28;93185;-64
2022/12/21 07:01:34;;;;;;;;;;;15.90;62.90;;;;;;10208161;28;92813;-65
2022/12/21 07:06:36;;;;;;;;;;;15.90;63.10;;;;;;10207419;28;94667;-67
2022/12/21 07:11:37;;;;;;;;;;;15.90;63.40;;;;;;10207627;28;94295;-66
2022/12/21 07:16:39;;;;;;;;;;;15.90;63.90;;;;;;10204807;28;95998;-66
2022/12/21 07:21:41;;;;;;;;;;;15.90;63.70;;;;;;10207106;28;93442;-66
2022/12/21 07:26:42;;;;;;;;;;;15.90;63.70;;;;;;10207549;28;94419;-66
2022/12/21 07:31:44;;;;;;;;;;;15.90;63.70;;;;;;10206602;28;93650;-66
2022/12/21 07:36:46;;;;;;;;;;;15.90;63.90;;;;;;10228553;28;94664;-66
2022/12/21 07:41:48;;;;;;;;;;;15.80;64.00;;;;;;10220745;28;93302;-66
2022/12/21 07:46:51;;;;;;;;;;;15.80;64.20;;;;;;10219619;28;93660;-66
2022/12/21 07:51:53;;;;;;;;;;;15.80;64.40;;;;;;10219578;28;92710;-66
2022/12/21 07:56:55;;;;;;;;;;;15.70;64.40;;;;;;10234518;28;93425;-67
2022/12/21 08:01:57;;;;;;;;;;;15.70;64.50;;;;;;10221142;28;94762;-67
2022/12/21 08:06:59;;;;;;;;;;;15.70;64.50;;;;;;10217355;28;96391;-67
2022/12/21 08:12:00;;;;;;;;;;;15.60;64.40;;;;;;10219818;28;93449;-65
2022/12/21 08:17:02;;;;;;;;;;;15.60;64.90;;;;;;10218968;28;93544;-67
2022/12/21 08:22:04;;;;;;;;;;;15.60;65.00;;;;;;10233983;28;93717;-66
2022/12/21 08:27:06;;;;;;;;;;;15.60;64.90;;;;;;10234061;28;93954;-66
2022/12/21 08:32:07;;;;;;;;;;;15.50;64.80;;;;;;10233838;28;94663;-65
2022/12/21 08:37:09;;;;;;;;;;;15.50;64.90;;;;;;10218628;28;94091;-65
2022/12/21 08:42:12;;;;;;;;;;;15.40;65.00;;;;;;10219328;28;92537;-65
2022/12/21 08:47:14;;;;;;;;;;;15.40;65.00;;;;;;10215184;28;93842;-66
2022/12/21 08:52:16;;;;;;;;;;;15.40;65.10;;;;;;10212136;28;94298;-66
2022/12/21 08:57:19;;;;;;;;;;;15.40;65.20;;;;;;10209292;28;96625;-66
2022/12/21 09:02:20;;;;;;;;;;;15.40;65.20;;;;;;10209583;28;93608;-66
2022/12/21 09:07:22;;;;;;;;;;;15.40;65.20;;;;;;10210973;28;93275;-66
2022/12/21 09:12:24;;;;;;;;;;;15.30;65.20;;;;;;10210491;28;93676;-66
2022/12/21 09:17:26;;;;;;;;;;;15.30;65.30;;;;;;10211171;28;93743;-66
2022/12/21 09:22:30;;;;;;;;;;;15.30;65.30;;;;;;10223699;28;93484;-66
2022/12/21 09:27:32;;;;;;;;;;;15.30;65.40;;;;;;10210952;28;94498;-65
2022/12/21 09:32:34;;;;;;;;;;;15.30;65.50;;;;;;10211715;28;93709;-66
2022/12/21 09:37:36;;;;;;;;;;;15.30;65.50;;;;;;10210494;28;93653;-66
2022/12/21 09:42:52;;;;;;;;;;;15.30;65.40;;;;;;10210439;28;94522;-66
2022/12/21 09:48:04;;;;;;;;;;;15.30;65.50;;;;;;10207299;28;96459;-66
2022/12/21 09:53:31;;;;;;;;;;;15.30;65.40;;;;;;10209367;28;93569;-66
2022/12/21 09:58:33;;;;;;;;;;;15.30;65.30;;;;;;10193306;28;93635;-69
2022/12/21 10:03:54;;;;;;;;;;;15.30;65.90;;;;;;10209588;28;94488;-64
2022/12/21 10:09:08;;;;;;;;;;;15.40;65.90;;;;;;10209227;28;94509;-65
2022/12/21 10:14:17;;;;;;;;;;;15.40;65.80;;;;;;10209735;28;94421;-65
2022/12/21 10:19:31;;;;;;;;;;;15.40;65.70;;;;;;10209419;28;93137;-65
2022/12/21 10:24:40;;;;;;;;;;;15.40;65.40;;;;;;10208842;28;93802;-65
2022/12/21 10:29:44;;;;;;;;;;;15.30;65.70;;;;;;10208981;28;93217;-65
2022/12/21 10:34:47;;;;;;;;;;;15.30;65.80;;;;;;10208703;28;93779;-65
2022/12/21 10:39:53;;;;;;;;;;;15.30;65.80;;;;;;10205777;28;96860;-65
2022/12/21 10:44:55;;;;;;;;;;;15.30;65.90;;;;;;10208614;28;93315;-64
2022/12/21 10:50:11;;;;;;;;;;;15.30;66.10;;;;;;10208049;28;93667;-65
2022/12/21 10:55:19;;;;;;;;;;;15.30;66.10;;;;;;10208217;28;93600;-65
2022/12/21 11:00:21;;;;;;;;;;;15.40;66.50;;;;;;10207330;28;94510;-66
2022/12/21 11:05:33;;;;;;;;;;;15.50;66.90;;;;;;10207885;28;94168;-66
2022/12/21 11:10:35;;;;;;;;;;;15.60;66.20;;;;;;10206352;28;93199;-67
2022/12/21 11:16:03;;;;;;;;;;;15.90;66.10;;;;;;10208747;28;92947;-64
2022/12/21 11:21:19;;;;;;;;;;;16.30;66.20;;;;;;10206587;28;95928;-68
2022/12/21 11:26:23;;;;;;;;;;;16.60;65.60;;;;;;10206899;28;93535;-66
2022/12/21 11:31:27;;;;;;;;;;;16.90;65.60;;;;;;10204581;28;96810;-65
2022/12/21 11:36:29;;;;;;;;;;;17.10;64.50;;;;;;10206714;28;93473;-64
2022/12/21 11:41:31;;;;;;;;;;;17.30;64.00;;;;;;10206538;28;93425;-64
2022/12/21 11:46:40;;;;;;;;;;;17.50;63.50;;;;;;10206775;28;93187;-63
2022/12/21 11:52:15;;;;;;;;;;;17.60;63.20;;;;;;10218250;28;94303;-67
2022/12/21 11:57:31;;;;;;;;;;;17.80;63.50;;;;;;10219989;28;94243;-65
2022/12/21 12:02:51;;;;;;;;;;;17.90;65.20;;;;;;10206335;28;93459;-65
2022/12/21 12:08:03;;;;;;;;;;;18.00;65.00;;;;;;10206445;28;92898;-66
2022/12/21 12:13:10;;;;;;;;;;;18.00;66.00;;;;;;10206309;28;94612;-65
2022/12/21 12:18:27;;;;;;;;;;;17.90;66.70;;;;;;10207020;28;93459;-66
2022/12/21 12:23:35;;;;;;;;;;;17.80;67.60;;;;;;10208750;28;96097;-66
2022/12/21 12:28:40;;;;;;;;;;;17.80;68.90;;;;;;10212999;28;95668;-65
2022/12/21 12:33:48;;;;;;;;;;;17.70;69.20;;;;;;10220109;28;93475;-67
2022/12/21 12:39:07;;;;;;;;;;;17.60;69.70;;;;;;10212668;28;94649;-67
2022/12/21 12:44:19;;;;;;;;;;;17.60;70.80;;;;;;10211055;28;94459;-68
2022/12/21 12:49:41;;;;;;;;;;;17.60;71.70;;;;;;10226908;28;92692;-68
2022/12/21 12:54:52;;;;;;;;;;;17.60;72.20;;;;;;10211713;28;93554;-69
2022/12/21 13:00:08;;;;;;;;;;;17.50;72.70;;;;;;10212082;28;93037;-66
2022/12/21 13:05:25;;;;;;;;;;;17.70;75.40;;;;;;10210368;28;94621;-66
2022/12/21 13:10:42;;;;;;;;;;;17.90;74.00;;;;;;10226164;28;93524;-67
2022/12/21 13:15:46;;;;;;;;;;;17.90;74.80;;;;;;10222845;28;96944;-66
2022/12/21 13:20:50;;;;;;;;;;;17.80;75.20;;;;;;10210613;28;93419;-67
2022/12/21 13:26:06;;;;;;;;;;;17.80;75.50;;;;;;10211237;28;93441;-67
2022/12/21 13:31:09;;;;;;;;;;;17.80;75.60;;;;;;10211631;28;94476;-67
2022/12/21 13:36:11;;;;;;;;;;;17.80;75.80;;;;;;10209478;28;94683;-67
2022/12/21 13:41:25;;;;;;;;;;;17.70;76.00;;;;;;10207574;28;93904;-66
2022/12/21 13:46:27;;;;;;;;;;;17.70;75.60;;;;;;10207043;28;93217;-65
2022/12/21 13:51:38;;;;;;;;;;;17.70;75.50;;;;;;10208975;28;93705;-66
2022/12/21 13:56:43;;;;;;;;;;;17.60;74.80;;;;;;10224583;28;94077;-66
2022/12/21 14:01:57;;;;;;;;;;;17.60;74.60;;;;;;10209815;28;93362;-67
2022/12/21 14:07:17;;;;;;;;;;;17.50;74.50;;;;;;10207344;28;96000;-65
2022/12/21 14:12:19;;;;;;;;;;;17.60;74.50;;;;;;10209286;28;93705;-66
2022/12/21 14:17:32;;;;;;;;;;;17.70;73.90;;;;;;10218751;28;93300;-67
2022/12/21 14:22:39;;;;;;;;;;;17.90;73.20;;;;;;10201640;28;94013;-66
2022/12/21 14:27:41;;;;;;;;;;;18.00;72.50;;;;;;10204591;28;94108;-66
2022/12/21 14:32:48;;;;;;;;;;;18.00;72.00;;;;;;10205359;28;94605;-66
2022/12/21 14:38:08;;;;;;;;;;;18.20;71.50;;;;;;10204536;28;93514;-66
2022/12/21 14:43:10;;;;;;;;;;;18.20;71.10;;;;;;10206016;28;92481;-66
2022/12/21 14:48:40;;;;;;;;;;;18.20;70.70;;;;;;10204473;28;94303;-67
2022/12/21 14:53:59;;;;;;;;;;;18.20;70.60;;;;;;10206346;28;93899;-67
2022/12/21 14:59:03;;;;;;;;;;;18.10;70.60;;;;;;10204819;28;96940;-65
2022/12/21 15:04:13;;;;;;;;;;;18.00;70.60;;;;;;10207215;28;94559;-69
2022/12/21 15:09:22;;;;;;;;;;;18.00;72.30;;;;;;10209227;28;93454;-69
2022/12/21 15:14:27;;;;;;;;;;;17.90;73.20;;;;;;10204987;28;114370;-69
2022/12/21 15:19:41;;;;;;;;;;;17.90;73.50;;;;;;10201454;28;94626;-69
2022/12/21 15:25:06;;;;;;;;;;;17.90;72.70;;;;;;10203086;28;93707;-70
2022/12/21 15:30:19;;;;;;;;;;;17.90;72.40;;;;;;10205817;28;94665;-67
2022/12/21 15:35:35;;;;;;;;;;;17.80;72.10;;;;;;10206395;28;91992;-70
2022/12/21 15:40:37;;;;;;;;;;;17.70;72.20;;;;;;10204985;28;93545;-69
2022/12/21 15:45:39;;;;;;;;;;;17.70;72.10;;;;;;10206473;28;94833;-69
2022/12/21 15:50:42;;;;;;;;;;;17.80;71.90;;;;;;10202904;28;96499;-72
2022/12/21 15:55:44;;;;;;;;;;;17.90;71.50;;;;;;10207088;28;94572;-75
2022/12/21 16:01:01;;;;;;;;;;;18.00;71.00;;;;;;10211670;28;93774;-75
2022/12/21 16:06:23;;;;;;;;;;;18.00;70.90;;;;;;10213429;28;94364;-67
2022/12/21 16:11:29;;;;;;;;;;;17.90;70.80;;;;;;10212492;28;93451;-68
2022/12/21 16:17:01;;;;;;;;;;;17.90;71.00;;;;;;10211626;28;96045;-68
2022/12/21 16:22:06;;;;;;;;;;;18.00;70.90;;;;;;10211961;28;94003;-68
2022/12/21 16:27:09;;;;;;;;;;;18.10;70.60;;;;;;10211401;28;92756;-69
2022/12/21 16:32:11;;;;;;;;;;;18.20;70.30;;;;;;10211915;28;93855;-68
2022/12/21 16:37:16;;;;;;;;;;;18.20;70.20;;;;;;10212623;28;93768;-70
2022/12/21 16:42:18;;;;;;;;;;;18.20;70.60;;;;;;10208033;28;97222;-69
2022/12/21 16:47:21;;;;;;;;;;;18.20;71.20;;;;;;10212002;28;93775;-69
2022/12/21 16:52:40;;;;;;;;;;;18.10;70.90;;;;;;10210854;28;94103;-69
2022/12/21 16:57:42;;;;;;;;;;;18.10;70.80;;;;;;10211541;28;94552;-68
2022/12/21 17:02:46;;;;;;;;;;;18.10;71.40;;;;;;10210088;28;94323;-66
2022/12/21 17:07:48;;;;;;;;;;;18.10;71.60;;;;;;10208317;28;93366;-67
2022/12/21 17:13:03;;;;;;;;;;;18.10;73.20;;;;;;10210122;28;94284;-66
2022/12/21 17:18:05;;;;;;;;;;;18.10;72.40;;;;;;10210726;28;93156;-66
2022/12/21 17:23:09;;;;;;;;;;;18.10;72.60;;;;;;10210379;28;93396;-67
2022/12/21 17:28:12;;;;;;;;;;;18.10;72.40;;;;;;10210019;28;93539;-66
2022/12/21 17:33:25;;;;;;;;;;;18.00;72.30;;;;;;10207636;28;99559;-68
2022/12/21 17:38:27;;;;;;;;;;;17.90;72.30;;;;;;10193421;28;96438;-68
2022/12/21 17:43:29;;;;;;;;;;;17.80;73.30;;;;;;10211256;28;93567;-67
2022/12/21 17:48:30;;;;;;;;;;;17.80;72.30;;;;;;10211737;28;94429;-65
2022/12/21 17:53:32;;;;;;;;;;;17.70;73.40;;;;;;10211642;28;93855;-66
2022/12/21 17:58:34;;;;;;;;;;;17.80;75.00;;;;;;10210520;28;93056;-67
2022/12/21 18:03:36;;;;;;;;;;;17.70;74.00;;;;;;10208840;28;93650;-66
2022/12/21 18:08:38;;;;;;;;;;;17.70;74.50;;;;;;10210618;28;93806;-67
2022/12/21 18:13:40;;;;;;;;;;;17.70;74.70;;;;;;10208907;28;94424;-68
2022/12/21 18:18:43;;;;;;;;;;;17.60;74.60;;;;;;10206759;28;94548;-67
2022/12/21 18:23:46;;;;;;;;;;;17.60;74.50;;;;;;10205674;28;95910;-67
2022/12/21 18:28:50;;;;;;;;;;;17.60;75.20;;;;;;10191493;28;93474;-66
2022/12/21 18:33:53;;;;;;;;;;;17.60;73.80;;;;;;10208117;28;93442;-67
2022/12/21 18:38:55;;;;;;;;;;;17.70;73.50;;;;;;10208992;28;93414;-66
2022/12/21 18:43:57;;;;;;;;;;;17.70;73.60;;;;;;10207618;28;93910;-67
2022/12/21 18:49:00;;;;;;;;;;;17.70;73.10;;;;;;10208919;28;93104;-68
2022/12/21 18:54:02;;;;;;;;;;;17.70;72.80;;;;;;10208622;28;96802;-67
2022/12/21 18:59:04;;;;;;;;;;;17.70;72.50;;;;;;10206739;28;92623;-67
2022/12/21 19:04:25;;;;;;;;;;;17.70;72.20;;;;;;10206876;28;93487;-67
2022/12/21 19:09:27;;;;;;;;;;;17.70;71.90;;;;;;10204688;28;94479;-67
2022/12/21 19:14:29;;;;;;;;;;;17.70;71.80;;;;;;10203683;28;96907;-67
2022/12/21 19:19:31;;;;;;;;;;;17.70;73.80;;;;;;10206890;28;94443;-73
2022/12/21 19:24:34;;;;;;;;;;;17.80;72.60;;;;;;10206838;28;94800;-74
2022/12/21 19:29:35;;;;;;;;;;;17.80;72.20;;;;;;10206513;28;94542;-74
2022/12/21 19:34:37;;;;;;;;;;;17.80;71.90;;;;;;10206174;28;93900;-74
2022/12/21 19:39:40;;;;;;;;;;;17.80;71.80;;;;;;10205596;28;93343;-71
2022/12/21 19:44:42;;;;;;;;;;;17.80;71.80;;;;;;10206341;28;93553;-70
2022/12/21 19:49:44;;;;;;;;;;;17.90;71.60;;;;;;10207668;28;93999;-71
2022/12/21 19:54:47;;;;;;;;;;;17.90;71.50;;;;;;10206531;28;94318;-71
2022/12/21 19:59:50;;;;;;;;;;;17.80;71.30;;;;;;10205855;28;93607;-70
2022/12/21 20:04:51;;;;;;;;;;;17.80;71.30;;;;;;10202798;28;95668;-71
2022/12/21 20:09:53;;;;;;;;;;;17.80;71.20;;;;;;10207019;28;93116;-71
2022/12/21 20:14:55;;;;;;;;;;;17.80;71.00;;;;;;10206629;28;94590;-70
2022/12/21 20:19:57;;;;;;;;;;;17.80;70.90;;;;;;10205007;28;94480;-70
2022/12/21 20:24:59;;;;;;;;;;;17.80;70.90;;;;;;10208369;28;94525;-69
2022/12/21 20:30:02;;;;;;;;;;;17.80;71.00;;;;;;10206882;28;93698;-71
2022/12/21 20:35:04;;;;;;;;;;;17.70;71.10;;;;;;10207517;28;94473;-71
2022/12/21 20:40:26;;;;;;;;;;;17.60;71.20;;;;;;10204991;28;92271;-67
2022/12/21 20:45:30;;;;;;;;;;;17.60;71.30;;;;;;10207926;28;93274;-67
2022/12/21 20:50:32;;;;;;;;;;;17.60;71.50;;;;;;10211328;28;93866;-67
2022/12/21 21:00:55;;;;;;;;;;;17.50;71.60;;;;;;10211915;28;93411;-73
2022/12/21 21:05:57;;;;;;;;;;;17.40;71.70;;;;;;10211445;28;94599;-67
2022/12/21 21:16:22;;;;;;;;;;;17.30;71.80;;;;;;10210953;28;93237;-66
2022/12/21 21:26:46;;;;;;;;;;;17.30;71.90;;;;;;10209241;28;93309;-67
2022/12/21 21:31:48;;;;;;;;;;;17.20;71.90;;;;;;10211504;28;92783;-67
2022/12/21 21:36:50;;;;;;;;;;;17.20;71.90;;;;;;10210091;28;93008;-67
2022/12/21 21:41:52;;;;;;;;;;;17.10;71.90;;;;;;10209554;28;93560;-66
2022/12/21 21:46:54;;;;;;;;;;;17.00;71.90;;;;;;10208285;28;96526;-66
2022/12/21 21:51:56;;;;;;;;;;;17.00;72.00;;;;;;10209739;28;94690;-67
2022/12/21 21:56:58;;;;;;;;;;;17.00;72.10;;;;;;10209329;28;94518;-66
2022/12/21 22:02:20;;;;;;;;;;;16.90;72.10;;;;;;10209733;28;93571;-66
2022/12/21 22:07:22;;;;;;;;;;;16.90;72.10;;;;;;10129185;28;93613;-66
2022/12/21 22:12:24;;;;;;;;;;;16.90;72.20;;;;;;10129095;28;94478;-66
2022/12/21 22:17:26;;;;;;;;;;;16.80;72.20;;;;;;10129206;28;93631;-66
2022/12/21 22:33:10;;;;;;;;;;;16.70;72.10;;;;;;10128990;28;93493;-67
2022/12/21 22:43:33;;;;;;;;;;;16.70;72.10;;;;;;10129040;28;94894;-67
2022/12/21 22:48:35;;;;;;;;;;;16.60;71.90;;;;;;10128231;28;93490;-66
2022/12/21 22:53:41;;;;;;;;;;;16.60;71.80;;;;;;10127870;28;93764;-66
2022/12/21 22:58:45;;;;;;;;;;;16.50;71.60;;;;;;10127613;28;93810;-66
2022/12/21 23:03:48;;;;;;;;;;;16.60;71.80;;;;;;10154830;28;93871;-66
2022/12/21 23:08:50;;;;;;;;;;;16.50;71.70;;;;;;10206885;28;93702;-73
2022/12/21 23:19:13;;;;;;;;;;;16.50;71.80;;;;;;10207846;28;93628;-66
2022/12/21 23:29:40;;;;;;;;;;;16.50;71.60;;;;;;10204340;28;96055;-66
2022/12/21 23:45:35;;;;;;;;;;;16.40;71.70;;;;;;10207164;28;93682;-67
